sensor_id;sensor_type;location;lat;lon;timestamp;P1;durP1;ratioP1;P2;durP2;ratioP2
82372;SDS011;72000;42.828;23.382;2024-03-06T00:01:30;9.73;;;4.07;;
82372;SDS011;72000;42.828;23.382;2024-03-06T00:03:56;11.73;;;4.38;;
82372;SDS011;72000;42.828;23.382;2024-03-06T00:06:22;9.07;;;4.18;;
82372;SDS011;72000;42.828;23.382;2024-03-06T00:08:49;12.45;;;4.32;;
82372;SDS011;72000;42.828;23.382;2024-03-06T00:11:15;11.77;;;4.28;;
82372;SDS011;72000;42.828;23.382;2024-03-06T00:13:41;11.68;;;4.65;;
82372;SDS011;72000;42.828;23.382;2024-03-06T00:16:06;11.65;;;4.70;;
82372;SDS011;72000;42.828;23.382;2024-03-06T00:18:32;10.32;;;4.40;;
82372;SDS011;72000;42.828;23.382;2024-03-06T00:20:58;11.77;;;4.45;;
82372;SDS011;72000;42.828;23.382;2024-03-06T00:23:24;10.60;;;4.35;;
82372;SDS011;72000;42.828;23.382;2024-03-06T00:25:49;10.35;;;4.03;;
82372;SDS011;72000;42.828;23.382;2024-03-06T00:28:15;11.20;;;4.05;;
82372;SDS011;72000;42.828;23.382;2024-03-06T00:30:40;12.05;;;4.50;;
82372;SDS011;72000;42.828;23.382;2024-03-06T00:33:06;12.25;;;4.15;;
82372;SDS011;72000;42.828;23.382;2024-03-06T00:35:32;11.48;;;4.28;;
82372;SDS011;72000;42.828;23.382;2024-03-06T00:37:58;9.45;;;4.13;;
82372;SDS011;72000;42.828;23.382;2024-03-06T00:40:27;10.65;;;4.40;;
82372;SDS011;72000;42.828;23.382;2024-03-06T00:42:56;10.85;;;4.47;;
82372;SDS011;72000;42.828;23.382;2024-03-06T00:45:22;12.18;;;4.80;;
82372;SDS011;72000;42.828;23.382;2024-03-06T00:47:48;12.18;;;4.30;;
82372;SDS011;72000;42.828;23.382;2024-03-06T00:50:13;12.35;;;4.60;;
82372;SDS011;72000;42.828;23.382;2024-03-06T00:52:41;11.52;;;4.57;;
82372;SDS011;72000;42.828;23.382;2024-03-06T00:55:08;10.23;;;4.20;;
82372;SDS011;72000;42.828;23.382;2024-03-06T00:57:34;13.25;;;5.13;;
82372;SDS011;72000;42.828;23.382;2024-03-06T00:59:59;10.10;;;4.15;;
82372;SDS011;72000;42.828;23.382;2024-03-06T01:02:25;13.57;;;4.72;;
82372;SDS011;72000;42.828;23.382;2024-03-06T01:04:50;9.82;;;4.35;;
82372;SDS011;72000;42.828;23.382;2024-03-06T01:07:16;9.85;;;4.20;;
82372;SDS011;72000;42.828;23.382;2024-03-06T01:09:41;10.52;;;4.15;;
82372;SDS011;72000;42.828;23.382;2024-03-06T01:12:07;11.45;;;4.10;;
82372;SDS011;72000;42.828;23.382;2024-03-06T01:14:32;11.18;;;4.50;;
82372;SDS011;72000;42.828;23.382;2024-03-06T01:16:58;10.85;;;4.40;;
82372;SDS011;72000;42.828;23.382;2024-03-06T01:19:24;9.70;;;4.28;;
82372;SDS011;72000;42.828;23.382;2024-03-06T01:21:49;13.40;;;5.50;;
82372;SDS011;72000;42.828;23.382;2024-03-06T01:24:15;13.45;;;5.40;;
82372;SDS011;72000;42.828;23.382;2024-03-06T01:26:41;15.25;;;5.50;;
82372;SDS011;72000;42.828;23.382;2024-03-06T01:29:06;13.25;;;4.95;;
82372;SDS011;72000;42.828;23.382;2024-03-06T01:31:32;13.15;;;5.15;;
82372;SDS011;72000;42.828;23.382;2024-03-06T01:33:58;15.45;;;5.82;;
82372;SDS011;72000;42.828;23.382;2024-03-06T01:36:23;13.57;;;5.70;;
82372;SDS011;72000;42.828;23.382;2024-03-06T01:38:49;12.75;;;5.38;;
82372;SDS011;72000;42.828;23.382;2024-03-06T01:41:15;16.13;;;5.93;;
82372;SDS011;72000;42.828;23.382;2024-03-06T01:43:40;15.07;;;6.00;;
82372;SDS011;72000;42.828;23.382;2024-03-06T01:46:06;15.02;;;6.00;;
82372;SDS011;72000;42.828;23.382;2024-03-06T01:48:32;14.00;;;5.80;;
82372;SDS011;72000;42.828;23.382;2024-03-06T01:50:59;14.63;;;5.90;;
82372;SDS011;72000;42.828;23.382;2024-03-06T01:53:26;12.63;;;5.68;;
82372;SDS011;72000;42.828;23.382;2024-03-06T01:55:52;14.15;;;5.82;;
82372;SDS011;72000;42.828;23.382;2024-03-06T01:58:18;12.15;;;5.40;;
82372;SDS011;72000;42.828;23.382;2024-03-06T02:00:46;14.52;;;5.63;;
82372;SDS011;72000;42.828;23.382;2024-03-06T02:03:12;13.70;;;5.47;;
82372;SDS011;72000;42.828;23.382;2024-03-06T02:05:37;13.32;;;5.30;;
82372;SDS011;72000;42.828;23.382;2024-03-06T02:08:04;14.00;;;5.55;;
82372;SDS011;72000;42.828;23.382;2024-03-06T02:12:55;16.75;;;5.68;;
82372;SDS011;72000;42.828;23.382;2024-03-06T02:15:22;13.93;;;5.72;;
82372;SDS011;72000;42.828;23.382;2024-03-06T02:17:47;13.20;;;5.22;;
82372;SDS011;72000;42.828;23.382;2024-03-06T02:20:13;13.75;;;5.25;;
82372;SDS011;72000;42.828;23.382;2024-03-06T02:22:40;12.02;;;4.70;;
82372;SDS011;72000;42.828;23.382;2024-03-06T02:25:06;12.60;;;5.30;;
82372;SDS011;72000;42.828;23.382;2024-03-06T02:27:32;12.35;;;4.93;;
82372;SDS011;72000;42.828;23.382;2024-03-06T02:29:58;11.23;;;4.78;;
82372;SDS011;72000;42.828;23.382;2024-03-06T02:32:30;12.60;;;5.13;;
82372;SDS011;72000;42.828;23.382;2024-03-06T02:34:56;13.20;;;5.05;;
82372;SDS011;72000;42.828;23.382;2024-03-06T02:37:21;11.35;;;4.75;;
82372;SDS011;72000;42.828;23.382;2024-03-06T02:39:48;12.98;;;4.90;;
82372;SDS011;72000;42.828;23.382;2024-03-06T02:42:14;12.10;;;4.55;;
82372;SDS011;72000;42.828;23.382;2024-03-06T02:44:39;13.80;;;5.53;;
82372;SDS011;72000;42.828;23.382;2024-03-06T02:47:05;13.82;;;5.32;;
82372;SDS011;72000;42.828;23.382;2024-03-06T02:49:31;12.80;;;5.18;;
82372;SDS011;72000;42.828;23.382;2024-03-06T02:51:56;12.88;;;4.95;;
82372;SDS011;72000;42.828;23.382;2024-03-06T02:54:22;12.15;;;4.80;;
82372;SDS011;72000;42.828;23.382;2024-03-06T02:56:51;14.38;;;5.07;;
82372;SDS011;72000;42.828;23.382;2024-03-06T02:59:17;14.48;;;5.03;;
82372;SDS011;72000;42.828;23.382;2024-03-06T03:01:43;11.35;;;4.43;;
82372;SDS011;72000;42.828;23.382;2024-03-06T03:04:09;12.95;;;5.05;;
82372;SDS011;72000;42.828;23.382;2024-03-06T03:06:35;11.73;;;4.90;;
82372;SDS011;72000;42.828;23.382;2024-03-06T03:09:01;11.65;;;4.78;;
82372;SDS011;72000;42.828;23.382;2024-03-06T03:11:28;10.38;;;4.55;;
82372;SDS011;72000;42.828;23.382;2024-03-06T03:13:55;13.13;;;4.53;;
82372;SDS011;72000;42.828;23.382;2024-03-06T03:16:20;11.10;;;4.30;;
82372;SDS011;72000;42.828;23.382;2024-03-06T03:18:46;13.05;;;4.93;;
82372;SDS011;72000;42.828;23.382;2024-03-06T03:23:39;11.13;;;4.60;;
82372;SDS011;72000;42.828;23.382;2024-03-06T03:26:05;13.18;;;4.47;;
82372;SDS011;72000;42.828;23.382;2024-03-06T03:28:31;11.65;;;4.50;;
82372;SDS011;72000;42.828;23.382;2024-03-06T03:30:58;13.70;;;4.78;;
82372;SDS011;72000;42.828;23.382;2024-03-06T03:33:24;11.57;;;4.63;;
82372;SDS011;72000;42.828;23.382;2024-03-06T03:35:49;14.48;;;4.97;;
82372;SDS011;72000;42.828;23.382;2024-03-06T03:38:15;11.75;;;4.47;;
82372;SDS011;72000;42.828;23.382;2024-03-06T03:40:41;12.40;;;4.65;;
82372;SDS011;72000;42.828;23.382;2024-03-06T03:43:07;13.30;;;4.43;;
82372;SDS011;72000;42.828;23.382;2024-03-06T03:45:32;14.68;;;4.88;;
82372;SDS011;72000;42.828;23.382;2024-03-06T03:48:04;11.65;;;4.50;;
82372;SDS011;72000;42.828;23.382;2024-03-06T03:50:30;11.13;;;4.50;;
82372;SDS011;72000;42.828;23.382;2024-03-06T03:52:56;12.27;;;4.75;;
82372;SDS011;72000;42.828;23.382;2024-03-06T03:55:25;11.38;;;4.30;;
82372;SDS011;72000;42.828;23.382;2024-03-06T03:57:51;11.65;;;4.57;;
82372;SDS011;72000;42.828;23.382;2024-03-06T04:00:17;12.25;;;4.32;;
82372;SDS011;72000;42.828;23.382;2024-03-06T04:02:43;12.05;;;4.65;;
82372;SDS011;72000;42.828;23.382;2024-03-06T04:05:09;12.05;;;4.65;;
82372;SDS011;72000;42.828;23.382;2024-03-06T04:07:36;12.70;;;4.88;;
82372;SDS011;72000;42.828;23.382;2024-03-06T04:10:02;10.65;;;4.07;;
82372;SDS011;72000;42.828;23.382;2024-03-06T04:14:54;11.45;;;4.78;;
82372;SDS011;72000;42.828;23.382;2024-03-06T04:17:19;14.40;;;4.72;;
82372;SDS011;72000;42.828;23.382;2024-03-06T04:19:45;11.00;;;4.75;;
82372;SDS011;72000;42.828;23.382;2024-03-06T04:22:13;11.98;;;4.65;;
82372;SDS011;72000;42.828;23.382;2024-03-06T04:24:42;11.45;;;4.47;;
82372;SDS011;72000;42.828;23.382;2024-03-06T04:27:07;12.32;;;4.63;;
82372;SDS011;72000;42.828;23.382;2024-03-06T04:29:33;13.35;;;4.60;;
82372;SDS011;72000;42.828;23.382;2024-03-06T04:31:58;11.20;;;4.00;;
82372;SDS011;72000;42.828;23.382;2024-03-06T04:34:24;9.32;;;3.75;;
82372;SDS011;72000;42.828;23.382;2024-03-06T04:36:50;13.00;;;4.38;;
82372;SDS011;72000;42.828;23.382;2024-03-06T04:39:15;12.15;;;4.45;;
82372;SDS011;72000;42.828;23.382;2024-03-06T04:41:40;9.30;;;4.05;;
82372;SDS011;72000;42.828;23.382;2024-03-06T04:44:06;10.50;;;4.03;;
82372;SDS011;72000;42.828;23.382;2024-03-06T04:46:32;11.13;;;4.00;;
82372;SDS011;72000;42.828;23.382;2024-03-06T04:48:57;10.60;;;3.80;;
82372;SDS011;72000;42.828;23.382;2024-03-06T04:51:23;11.15;;;4.18;;
82372;SDS011;72000;42.828;23.382;2024-03-06T04:53:49;9.70;;;4.00;;
82372;SDS011;72000;42.828;23.382;2024-03-06T04:56:14;10.13;;;4.00;;
82372;SDS011;72000;42.828;23.382;2024-03-06T04:58:43;8.32;;;3.38;;
82372;SDS011;72000;42.828;23.382;2024-03-06T05:01:09;9.32;;;3.65;;
82372;SDS011;72000;42.828;23.382;2024-03-06T05:03:35;11.50;;;3.92;;
82372;SDS011;72000;42.828;23.382;2024-03-06T05:06:01;10.32;;;4.10;;
82372;SDS011;72000;42.828;23.382;2024-03-06T05:08:27;10.43;;;4.32;;
82372;SDS011;72000;42.828;23.382;2024-03-06T05:10:54;8.73;;;3.72;;
82372;SDS011;72000;42.828;23.382;2024-03-06T05:13:19;9.85;;;4.03;;
82372;SDS011;72000;42.828;23.382;2024-03-06T05:15:45;11.18;;;4.03;;
82372;SDS011;72000;42.828;23.382;2024-03-06T05:18:10;11.75;;;4.57;;
82372;SDS011;72000;42.828;23.382;2024-03-06T05:20:36;11.95;;;4.20;;
82372;SDS011;72000;42.828;23.382;2024-03-06T05:23:02;8.38;;;3.50;;
82372;SDS011;72000;42.828;23.382;2024-03-06T05:25:28;11.43;;;3.92;;
82372;SDS011;72000;42.828;23.382;2024-03-06T05:27:53;10.65;;;4.28;;
82372;SDS011;72000;42.828;23.382;2024-03-06T05:30:19;11.63;;;4.45;;
82372;SDS011;72000;42.828;23.382;2024-03-06T05:32:45;10.30;;;4.47;;
82372;SDS011;72000;42.828;23.382;2024-03-06T05:35:12;12.52;;;5.50;;
82372;SDS011;72000;42.828;23.382;2024-03-06T05:37:38;14.88;;;5.55;;
82372;SDS011;72000;42.828;23.382;2024-03-06T05:40:04;12.98;;;5.10;;
82372;SDS011;72000;42.828;23.382;2024-03-06T05:42:30;16.05;;;5.80;;
82372;SDS011;72000;42.828;23.382;2024-03-06T05:44:58;13.32;;;5.85;;
82372;SDS011;72000;42.828;23.382;2024-03-06T05:47:31;15.60;;;6.13;;
82372;SDS011;72000;42.828;23.382;2024-03-06T05:49:57;13.70;;;5.65;;
82372;SDS011;72000;42.828;23.382;2024-03-06T05:52:22;13.13;;;5.78;;
82372;SDS011;72000;42.828;23.382;2024-03-06T05:54:49;16.92;;;6.43;;
82372;SDS011;72000;42.828;23.382;2024-03-06T05:57:15;17.58;;;5.85;;
82372;SDS011;72000;42.828;23.382;2024-03-06T05:59:41;14.38;;;5.68;;
82372;SDS011;72000;42.828;23.382;2024-03-06T06:02:07;12.50;;;5.57;;
82372;SDS011;72000;42.828;23.382;2024-03-06T06:04:32;16.27;;;6.10;;
82372;SDS011;72000;42.828;23.382;2024-03-06T06:06:58;15.05;;;6.28;;
82372;SDS011;72000;42.828;23.382;2024-03-06T06:09:24;15.27;;;6.10;;
82372;SDS011;72000;42.828;23.382;2024-03-06T06:11:49;16.83;;;6.10;;
82372;SDS011;72000;42.828;23.382;2024-03-06T06:14:15;14.23;;;6.30;;
82372;SDS011;72000;42.828;23.382;2024-03-06T06:16:41;16.33;;;6.53;;
82372;SDS011;72000;42.828;23.382;2024-03-06T06:19:07;15.45;;;6.32;;
82372;SDS011;72000;42.828;23.382;2024-03-06T06:21:33;16.55;;;7.32;;
82372;SDS011;72000;42.828;23.382;2024-03-06T06:24:00;14.85;;;6.47;;
82372;SDS011;72000;42.828;23.382;2024-03-06T06:26:30;17.92;;;7.82;;
82372;SDS011;72000;42.828;23.382;2024-03-06T06:28:56;20.35;;;7.78;;
82372;SDS011;72000;42.828;23.382;2024-03-06T06:31:23;23.27;;;9.07;;
82372;SDS011;72000;42.828;23.382;2024-03-06T06:33:50;21.50;;;8.25;;
82372;SDS011;72000;42.828;23.382;2024-03-06T06:38:43;24.02;;;8.52;;
82372;SDS011;72000;42.828;23.382;2024-03-06T06:41:09;24.63;;;8.40;;
82372;SDS011;72000;42.828;23.382;2024-03-06T06:43:35;26.75;;;10.23;;
82372;SDS011;72000;42.828;23.382;2024-03-06T06:46:01;32.58;;;10.80;;
82372;SDS011;72000;42.828;23.382;2024-03-06T06:48:30;28.60;;;10.45;;
82372;SDS011;72000;42.828;23.382;2024-03-06T06:50:56;29.98;;;10.32;;
82372;SDS011;72000;42.828;23.382;2024-03-06T06:53:21;28.73;;;9.63;;
82372;SDS011;72000;42.828;23.382;2024-03-06T06:55:47;25.38;;;8.90;;
82372;SDS011;72000;42.828;23.382;2024-03-06T06:58:12;24.33;;;8.68;;
82372;SDS011;72000;42.828;23.382;2024-03-06T07:00:38;26.08;;;9.27;;
82372;SDS011;72000;42.828;23.382;2024-03-06T07:03:03;23.90;;;9.95;;
82372;SDS011;72000;42.828;23.382;2024-03-06T07:05:29;22.92;;;8.88;;
82372;SDS011;72000;42.828;23.382;2024-03-06T07:07:54;23.85;;;9.18;;
82372;SDS011;72000;42.828;23.382;2024-03-06T07:10:20;40.55;;;9.95;;
82372;SDS011;72000;42.828;23.382;2024-03-06T07:12:46;24.98;;;9.30;;
82372;SDS011;72000;42.828;23.382;2024-03-06T07:15:12;27.17;;;10.07;;
82372;SDS011;72000;42.828;23.382;2024-03-06T07:17:38;28.48;;;10.43;;
82372;SDS011;72000;42.828;23.382;2024-03-06T07:20:03;27.10;;;9.75;;
82372;SDS011;72000;42.828;23.382;2024-03-06T07:22:31;22.42;;;8.98;;
82372;SDS011;72000;42.828;23.382;2024-03-06T07:27:23;27.63;;;9.75;;
82372;SDS011;72000;42.828;23.382;2024-03-06T07:29:48;28.88;;;10.02;;
82372;SDS011;72000;42.828;23.382;2024-03-06T07:32:14;27.20;;;10.57;;
82372;SDS011;72000;42.828;23.382;2024-03-06T07:34:39;25.55;;;9.65;;
82372;SDS011;72000;42.828;23.382;2024-03-06T07:37:05;26.70;;;10.57;;
82372;SDS011;72000;42.828;23.382;2024-03-06T07:39:30;26.42;;;10.00;;
82372;SDS011;72000;42.828;23.382;2024-03-06T07:42:00;23.88;;;9.68;;
82372;SDS011;72000;42.828;23.382;2024-03-06T07:44:25;22.65;;;9.63;;
82372;SDS011;72000;42.828;23.382;2024-03-06T07:46:51;25.65;;;10.27;;
82372;SDS011;72000;42.828;23.382;2024-03-06T07:49:18;22.13;;;9.32;;
82372;SDS011;72000;42.828;23.382;2024-03-06T07:51:44;22.80;;;9.15;;
82372;SDS011;72000;42.828;23.382;2024-03-06T07:54:09;22.77;;;9.98;;
82372;SDS011;72000;42.828;23.382;2024-03-06T07:56:36;22.30;;;9.30;;
82372;SDS011;72000;42.828;23.382;2024-03-06T07:59:01;22.05;;;9.07;;
82372;SDS011;72000;42.828;23.382;2024-03-06T08:01:27;20.02;;;8.75;;
82372;SDS011;72000;42.828;23.382;2024-03-06T08:03:54;21.77;;;8.40;;
82372;SDS011;72000;42.828;23.382;2024-03-06T08:06:20;20.63;;;8.50;;
82372;SDS011;72000;42.828;23.382;2024-03-06T08:08:45;20.20;;;8.63;;
82372;SDS011;72000;42.828;23.382;2024-03-06T08:11:12;18.75;;;8.07;;
82372;SDS011;72000;42.828;23.382;2024-03-06T08:13:40;18.70;;;8.23;;
82372;SDS011;72000;42.828;23.382;2024-03-06T08:16:06;21.67;;;8.70;;
82372;SDS011;72000;42.828;23.382;2024-03-06T08:18:32;20.52;;;9.07;;
82372;SDS011;72000;42.828;23.382;2024-03-06T08:20:59;18.35;;;8.60;;
82372;SDS011;72000;42.828;23.382;2024-03-06T08:23:24;18.70;;;8.10;;
82372;SDS011;72000;42.828;23.382;2024-03-06T08:25:50;16.83;;;7.28;;
82372;SDS011;72000;42.828;23.382;2024-03-06T08:28:16;18.05;;;8.77;;
82372;SDS011;72000;42.828;23.382;2024-03-06T08:30:42;18.20;;;8.60;;
82372;SDS011;72000;42.828;23.382;2024-03-06T08:33:09;18.40;;;8.52;;
82372;SDS011;72000;42.828;23.382;2024-03-06T08:35:34;18.58;;;8.35;;
82372;SDS011;72000;42.828;23.382;2024-03-06T08:38:00;17.67;;;7.88;;
82372;SDS011;72000;42.828;23.382;2024-03-06T08:40:26;16.80;;;7.43;;
82372;SDS011;72000;42.828;23.382;2024-03-06T08:42:52;17.23;;;8.20;;
82372;SDS011;72000;42.828;23.382;2024-03-06T08:45:18;17.05;;;7.85;;
82372;SDS011;72000;42.828;23.382;2024-03-06T08:47:44;17.92;;;7.97;;
82372;SDS011;72000;42.828;23.382;2024-03-06T08:50:10;17.75;;;7.63;;
82372;SDS011;72000;42.828;23.382;2024-03-06T08:55:02;15.88;;;7.63;;
82372;SDS011;72000;42.828;23.382;2024-03-06T08:57:31;17.50;;;8.05;;
82372;SDS011;72000;42.828;23.382;2024-03-06T08:59:58;20.25;;;8.50;;
82372;SDS011;72000;42.828;23.382;2024-03-06T09:02:23;19.55;;;8.68;;
82372;SDS011;72000;42.828;23.382;2024-03-06T09:04:50;16.75;;;7.47;;
82372;SDS011;72000;42.828;23.382;2024-03-06T09:07:20;17.80;;;8.18;;
82372;SDS011;72000;42.828;23.382;2024-03-06T09:09:49;18.25;;;8.32;;
82372;SDS011;72000;42.828;23.382;2024-03-06T09:12:15;17.52;;;8.05;;
82372;SDS011;72000;42.828;23.382;2024-03-06T09:14:40;18.42;;;8.02;;
82372;SDS011;72000;42.828;23.382;2024-03-06T09:17:06;15.70;;;6.88;;
82372;SDS011;72000;42.828;23.382;2024-03-06T09:19:34;17.30;;;7.95;;
82372;SDS011;72000;42.828;23.382;2024-03-06T09:22:00;16.77;;;7.82;;
82372;SDS011;72000;42.828;23.382;2024-03-06T09:24:26;16.48;;;7.63;;
82372;SDS011;72000;42.828;23.382;2024-03-06T09:26:52;15.73;;;7.90;;
82372;SDS011;72000;42.828;23.382;2024-03-06T09:29:18;20.02;;;8.25;;
82372;SDS011;72000;42.828;23.382;2024-03-06T09:31:44;17.55;;;8.48;;
82372;SDS011;72000;42.828;23.382;2024-03-06T09:34:10;18.40;;;8.43;;
82372;SDS011;72000;42.828;23.382;2024-03-06T09:36:40;24.23;;;9.73;;
82372;SDS011;72000;42.828;23.382;2024-03-06T09:39:13;26.10;;;10.40;;
82372;SDS011;72000;42.828;23.382;2024-03-06T09:41:44;22.20;;;9.82;;
82372;SDS011;72000;42.828;23.382;2024-03-06T09:44:11;18.33;;;8.73;;
82372;SDS011;72000;42.828;23.382;2024-03-06T09:46:37;20.13;;;8.80;;
82372;SDS011;72000;42.828;23.382;2024-03-06T09:49:03;17.52;;;8.00;;
82372;SDS011;72000;42.828;23.382;2024-03-06T09:51:28;15.85;;;7.47;;
82372;SDS011;72000;42.828;23.382;2024-03-06T09:53:55;15.15;;;7.40;;
82372;SDS011;72000;42.828;23.382;2024-03-06T09:56:21;16.13;;;7.22;;
82372;SDS011;72000;42.828;23.382;2024-03-06T09:58:46;17.65;;;8.27;;
82372;SDS011;72000;42.828;23.382;2024-03-06T10:01:12;18.25;;;7.68;;
82372;SDS011;72000;42.828;23.382;2024-03-06T10:03:38;17.38;;;7.78;;
82372;SDS011;72000;42.828;23.382;2024-03-06T10:06:06;18.95;;;8.02;;
82372;SDS011;72000;42.828;23.382;2024-03-06T10:08:33;17.40;;;7.95;;
82372;SDS011;72000;42.828;23.382;2024-03-06T10:13:24;15.05;;;7.10;;
82372;SDS011;72000;42.828;23.382;2024-03-06T10:16:01;16.33;;;7.07;;
82372;SDS011;72000;42.828;23.382;2024-03-06T10:18:29;15.05;;;6.65;;
82372;SDS011;72000;42.828;23.382;2024-03-06T10:20:56;14.45;;;6.55;;
82372;SDS011;72000;42.828;23.382;2024-03-06T10:23:21;13.77;;;6.38;;
82372;SDS011;72000;42.828;23.382;2024-03-06T10:25:47;13.05;;;6.00;;
82372;SDS011;72000;42.828;23.382;2024-03-06T10:30:45;14.40;;;6.05;;
82372;SDS011;72000;42.828;23.382;2024-03-06T10:33:11;11.07;;;5.18;;
82372;SDS011;72000;42.828;23.382;2024-03-06T10:35:41;12.48;;;5.38;;
82372;SDS011;72000;42.828;23.382;2024-03-06T10:40:37;10.68;;;5.82;;
82372;SDS011;72000;42.828;23.382;2024-03-06T10:43:04;11.18;;;5.70;;
82372;SDS011;72000;42.828;23.382;2024-03-06T10:48:16;12.27;;;5.47;;
82372;SDS011;72000;42.828;23.382;2024-03-06T10:50:42;12.82;;;5.20;;
82372;SDS011;72000;42.828;23.382;2024-03-06T10:53:14;10.73;;;5.55;;
82372;SDS011;72000;42.828;23.382;2024-03-06T10:55:40;11.70;;;5.05;;
82372;SDS011;72000;42.828;23.382;2024-03-06T10:58:09;11.63;;;5.03;;
82372;SDS011;72000;42.828;23.382;2024-03-06T11:03:05;11.73;;;5.50;;
82372;SDS011;72000;42.828;23.382;2024-03-06T11:05:34;11.23;;;5.13;;
82372;SDS011;72000;42.828;23.382;2024-03-06T11:08:01;9.75;;;4.90;;
82372;SDS011;72000;42.828;23.382;2024-03-06T11:10:32;10.93;;;4.72;;
82372;SDS011;72000;42.828;23.382;2024-03-06T11:12:59;9.38;;;4.72;;
82372;SDS011;72000;42.828;23.382;2024-03-06T11:15:24;10.20;;;4.97;;
82372;SDS011;72000;42.828;23.382;2024-03-06T11:17:50;10.23;;;5.00;;
82372;SDS011;72000;42.828;23.382;2024-03-06T11:20:18;11.95;;;5.05;;
82372;SDS011;72000;42.828;23.382;2024-03-06T11:28:11;8.27;;;4.60;;
82372;SDS011;72000;42.828;23.382;2024-03-06T11:30:44;11.50;;;5.10;;
82372;SDS011;72000;42.828;23.382;2024-03-06T11:33:16;9.07;;;4.75;;
82372;SDS011;72000;42.828;23.382;2024-03-06T11:35:42;10.88;;;5.10;;
82372;SDS011;72000;42.828;23.382;2024-03-06T11:38:16;8.70;;;4.95;;
82372;SDS011;72000;42.828;23.382;2024-03-06T11:40:45;10.80;;;4.57;;
82372;SDS011;72000;42.828;23.382;2024-03-06T11:43:26;9.63;;;4.78;;
82372;SDS011;72000;42.828;23.382;2024-03-06T11:45:52;10.35;;;5.18;;
82372;SDS011;72000;42.828;23.382;2024-03-06T11:48:18;8.65;;;4.18;;
82372;SDS011;72000;42.828;23.382;2024-03-06T11:50:46;11.38;;;4.95;;
82372;SDS011;72000;42.828;23.382;2024-03-06T11:53:13;7.95;;;4.30;;
82372;SDS011;72000;42.828;23.382;2024-03-06T11:55:39;9.70;;;4.60;;
82372;SDS011;72000;42.828;23.382;2024-03-06T11:58:08;14.07;;;5.68;;
82372;SDS011;72000;42.828;23.382;2024-03-06T12:00:35;8.48;;;4.63;;
82372;SDS011;72000;42.828;23.382;2024-03-06T12:03:01;9.07;;;4.00;;
82372;SDS011;72000;42.828;23.382;2024-03-06T12:05:30;8.13;;;3.75;;
82372;SDS011;72000;42.828;23.382;2024-03-06T12:07:56;10.38;;;4.55;;
82372;SDS011;72000;42.828;23.382;2024-03-06T12:10:21;9.85;;;4.47;;
82372;SDS011;72000;42.828;23.382;2024-03-06T12:12:47;8.63;;;4.10;;
82372;SDS011;72000;42.828;23.382;2024-03-06T12:15:13;8.85;;;3.88;;
82372;SDS011;72000;42.828;23.382;2024-03-06T12:17:47;7.93;;;3.40;;
82372;SDS011;72000;42.828;23.382;2024-03-06T12:20:17;8.73;;;3.72;;
82372;SDS011;72000;42.828;23.382;2024-03-06T12:22:53;6.65;;;3.47;;
82372;SDS011;72000;42.828;23.382;2024-03-06T12:25:19;9.05;;;3.05;;
82372;SDS011;72000;42.828;23.382;2024-03-06T12:27:46;6.55;;;3.30;;
82372;SDS011;72000;42.828;23.382;2024-03-06T12:30:12;5.40;;;2.85;;
82372;SDS011;72000;42.828;23.382;2024-03-06T12:35:04;6.25;;;3.00;;
82372;SDS011;72000;42.828;23.382;2024-03-06T12:37:30;7.78;;;3.13;;
82372;SDS011;72000;42.828;23.382;2024-03-06T12:39:57;5.25;;;2.83;;
82372;SDS011;72000;42.828;23.382;2024-03-06T12:42:22;6.72;;;2.83;;
82372;SDS011;72000;42.828;23.382;2024-03-06T12:44:49;6.80;;;2.70;;
82372;SDS011;72000;42.828;23.382;2024-03-06T12:47:15;5.68;;;2.70;;
82372;SDS011;72000;42.828;23.382;2024-03-06T12:49:40;6.03;;;2.60;;
82372;SDS011;72000;42.828;23.382;2024-03-06T12:52:05;5.00;;;2.50;;
82372;SDS011;72000;42.828;23.382;2024-03-06T12:54:31;5.40;;;2.60;;
82372;SDS011;72000;42.828;23.382;2024-03-06T12:56:57;5.05;;;2.70;;
82372;SDS011;72000;42.828;23.382;2024-03-06T12:59:22;4.90;;;2.47;;
82372;SDS011;72000;42.828;23.382;2024-03-06T13:01:48;6.45;;;2.72;;
82372;SDS011;72000;42.828;23.382;2024-03-06T13:04:13;5.30;;;2.65;;
82372;SDS011;72000;42.828;23.382;2024-03-06T13:06:39;6.05;;;2.80;;
82372;SDS011;72000;42.828;23.382;2024-03-06T13:09:08;6.70;;;2.60;;
82372;SDS011;72000;42.828;23.382;2024-03-06T13:11:33;6.65;;;2.70;;
82372;SDS011;72000;42.828;23.382;2024-03-06T13:13:59;6.47;;;2.80;;
82372;SDS011;72000;42.828;23.382;2024-03-06T13:16:26;6.28;;;2.70;;
82372;SDS011;72000;42.828;23.382;2024-03-06T13:18:51;4.50;;;2.38;;
82372;SDS011;72000;42.828;23.382;2024-03-06T13:21:19;6.50;;;2.67;;
82372;SDS011;72000;42.828;23.382;2024-03-06T13:23:45;5.95;;;2.85;;
82372;SDS011;72000;42.828;23.382;2024-03-06T13:26:11;5.78;;;2.90;;
82372;SDS011;72000;42.828;23.382;2024-03-06T13:28:38;5.15;;;2.60;;
82372;SDS011;72000;42.828;23.382;2024-03-06T13:31:04;5.65;;;2.83;;
82372;SDS011;72000;42.828;23.382;2024-03-06T13:33:32;5.13;;;2.55;;
82372;SDS011;72000;42.828;23.382;2024-03-06T13:38:23;5.32;;;2.50;;
82372;SDS011;72000;42.828;23.382;2024-03-06T13:40:49;5.65;;;2.72;;
82372;SDS011;72000;42.828;23.382;2024-03-06T13:43:14;5.88;;;2.83;;
82372;SDS011;72000;42.828;23.382;2024-03-06T13:45:49;5.63;;;2.90;;
82372;SDS011;72000;42.828;23.382;2024-03-06T13:48:15;7.50;;;2.63;;
82372;SDS011;72000;42.828;23.382;2024-03-06T13:50:44;5.97;;;2.40;;
82372;SDS011;72000;42.828;23.382;2024-03-06T13:53:10;7.05;;;2.55;;
82372;SDS011;72000;42.828;23.382;2024-03-06T13:55:38;5.15;;;2.65;;
82372;SDS011;72000;42.828;23.382;2024-03-06T13:58:05;6.85;;;2.67;;
82372;SDS011;72000;42.828;23.382;2024-03-06T14:00:32;5.32;;;2.42;;
82372;SDS011;72000;42.828;23.382;2024-03-06T14:02:59;6.80;;;2.60;;
82372;SDS011;72000;42.828;23.382;2024-03-06T14:05:25;8.75;;;2.80;;
82372;SDS011;72000;42.828;23.382;2024-03-06T14:07:51;4.82;;;2.50;;
82372;SDS011;72000;42.828;23.382;2024-03-06T14:10:17;6.32;;;3.08;;
82372;SDS011;72000;42.828;23.382;2024-03-06T14:12:45;4.72;;;2.55;;
82372;SDS011;72000;42.828;23.382;2024-03-06T14:15:11;5.18;;;2.70;;
82372;SDS011;72000;42.828;23.382;2024-03-06T14:17:40;7.50;;;2.70;;
82372;SDS011;72000;42.828;23.382;2024-03-06T14:20:06;6.05;;;2.60;;
82372;SDS011;72000;42.828;23.382;2024-03-06T14:24:58;6.20;;;2.50;;
82372;SDS011;72000;42.828;23.382;2024-03-06T14:27:23;5.60;;;2.63;;
82372;SDS011;72000;42.828;23.382;2024-03-06T14:29:49;6.13;;;2.45;;
82372;SDS011;72000;42.828;23.382;2024-03-06T14:32:15;6.80;;;2.80;;
82372;SDS011;72000;42.828;23.382;2024-03-06T14:34:43;5.10;;;2.47;;
82372;SDS011;72000;42.828;23.382;2024-03-06T14:37:09;5.43;;;2.50;;
82372;SDS011;72000;42.828;23.382;2024-03-06T14:39:35;5.18;;;2.42;;
82372;SDS011;72000;42.828;23.382;2024-03-06T14:42:01;5.80;;;2.50;;
82372;SDS011;72000;42.828;23.382;2024-03-06T14:44:26;6.18;;;2.50;;
82372;SDS011;72000;42.828;23.382;2024-03-06T14:46:52;7.43;;;2.78;;
82372;SDS011;72000;42.828;23.382;2024-03-06T14:49:17;5.95;;;2.60;;
82372;SDS011;72000;42.828;23.382;2024-03-06T14:51:43;5.53;;;2.50;;
82372;SDS011;72000;42.828;23.382;2024-03-06T14:54:09;5.63;;;2.67;;
82372;SDS011;72000;42.828;23.382;2024-03-06T14:56:34;5.53;;;2.80;;
82372;SDS011;72000;42.828;23.382;2024-03-06T14:59:00;5.22;;;2.60;;